Time;durP1;ratioP1;P1;durP2;ratioP2;P2;SDS_P1;SDS_P2;PMS_P1;PMS_P2;Temp;Humidity;BMP_temperature;BMP_pressure;BME280_temperature;BME280_humidity;BME280_pressure;Samples;Min_cycle;Max_cycle;Signal;HPM_P1;HPM_P2
2022/04/07 01:12:13;;;;;;;4.93;2.35;;;10.90;99.90;;;8.77;100.00;98219.25;5018612;28;20046;-93
2022/04/07 01:16:08;;;;;;;5.32;2.00;;;10.90;99.90;;;8.68;100.00;98217.91;4936127;29;20082;-93
2022/04/07 01:19:30;;;;;;;6.90;2.10;;;10.90;99.90;;;8.75;100.00;98210.50;4838697;29;20145;-93
2022/04/07 01:26:28;;;;;;;6.18;2.38;;;10.80;99.90;;;8.83;100.00;98202.03;4894988;29;20218;-93
2022/04/07 01:33:01;;;;;;;5.80;1.88;;;10.90;99.90;;;8.86;100.00;98184.50;5062118;23;20107;-76
2022/04/07 01:35:29;;;;;;;5.50;2.00;;;10.80;99.90;;;8.83;100.00;98174.91;4991138;28;20126;-76
2022/04/07 01:37:58;;;;;;;9.35;2.10;;;10.90;99.90;;;8.86;100.00;98179.88;4999510;28;20710;-76
2022/04/07 01:40:36;;;;;;;6.05;1.88;;;10.90;99.90;;;8.87;100.00;98180.72;4993249;28;20042;-76
2022/04/07 01:43:06;;;;;;;3.47;1.60;;;10.90;99.90;;;8.84;100.00;98167.63;4989931;28;20046;-78
2022/04/07 01:45:34;;;;;;;5.97;1.80;;;10.90;99.90;;;8.88;100.00;98177.78;4994842;28;20041;-76
2022/04/07 01:48:05;;;;;;;6.75;1.75;;;10.90;99.90;;;8.91;100.00;98163.75;5009179;28;20116;-76
2022/04/07 01:50:33;;;;;;;6.88;1.77;;;10.90;99.90;;;8.95;100.00;98167.66;5009785;28;20569;-76
2022/04/07 01:53:02;;;;;;;4.57;1.55;;;10.90;99.90;;;8.96;100.00;98152.19;5018445;28;20176;-75
2022/04/07 01:55:30;;;;;;;5.45;1.67;;;11.00;99.90;;;9.00;100.00;98154.22;4995153;28;20043;-76
2022/04/07 01:57:59;;;;;;;5.90;1.65;;;11.00;99.90;;;9.03;100.00;98154.81;4997312;28;20038;-76
2022/04/07 02:00:26;;;;;;;5.97;1.88;;;11.00;99.90;;;9.03;100.00;98155.63;4996584;28;20117;-76
2022/04/07 02:02:54;;;;;;;6.63;1.88;;;11.00;99.90;;;9.06;100.00;98146.19;4993844;28;20054;-76
2022/04/07 02:05:22;;;;;;;6.50;1.83;;;11.00;99.90;;;9.09;100.00;98151.16;5008308;28;20104;-76
2022/04/07 02:07:51;;;;;;;7.03;2.00;;;11.00;99.90;;;9.12;100.00;98148.81;5013355;28;20045;-76
2022/04/07 02:10:18;;;;;;;5.13;1.90;;;11.00;99.90;;;9.16;100.00;98143.75;5002788;28;20034;-76
2022/04/07 02:12:46;;;;;;;4.15;1.90;;;11.00;99.90;;;9.15;100.00;98142.09;5011435;28;20086;-76
2022/04/07 02:15:14;;;;;;;4.78;1.73;;;11.00;99.90;;;9.13;100.00;98141.50;5011782;28;20422;-76
2022/04/07 02:17:41;;;;;;;6.65;2.17;;;11.00;99.90;;;9.14;100.00;98137.75;5010921;28;20065;-76
2022/04/07 02:20:11;;;;;;;5.20;1.92;;;11.10;99.90;;;9.15;100.00;98125.81;4992639;28;20518;-76
2022/04/07 02:22:39;;;;;;;4.55;1.83;;;11.10;99.90;;;9.15;100.00;98125.81;4995196;28;20402;-76
2022/04/07 02:25:09;;;;;;;6.75;1.80;;;11.10;99.90;;;9.20;100.00;98125.94;4993573;28;20088;-76
2022/04/07 02:27:37;;;;;;;8.15;1.80;;;11.00;99.90;;;9.21;100.00;98130.28;4998873;28;20037;-78
2022/04/07 02:30:07;;;;;;;4.57;1.65;;;11.00;99.90;;;9.22;100.00;98123.00;5012017;28;20594;-76
2022/04/07 02:32:34;;;;;;;5.95;2.08;;;11.10;99.90;;;9.23;100.00;98120.03;5010036;28;20049;-76
2022/04/07 02:35:01;;;;;;;5.78;1.88;;;11.10;99.90;;;9.24;100.00;98118.16;5007703;28;20078;-76
2022/04/07 02:37:29;;;;;;;4.05;1.70;;;11.10;99.90;;;9.25;100.00;98120.63;4992785;28;20121;-76
2022/04/07 02:39:57;;;;;;;6.32;2.05;;;11.10;99.90;;;9.25;100.00;98111.66;4992462;28;20088;-76
2022/04/07 02:42:25;;;;;;;4.88;1.95;;;11.20;99.90;;;9.27;100.00;98104.09;4994723;28;20046;-76
2022/04/07 02:44:52;;;;;;;4.22;1.52;;;11.20;99.90;;;9.29;100.00;98091.13;4993216;28;20499;-76
2022/04/07 02:47:19;;;;;;;5.45;1.88;;;11.20;99.90;;;9.27;100.00;98083.22;4999320;28;20129;-76
2022/04/07 02:49:47;;;;;;;5.72;2.22;;;11.20;99.90;;;9.26;100.00;98081.56;4994425;28;20050;-76
2022/04/07 02:52:14;;;;;;;6.53;2.40;;;11.20;99.90;;;9.31;100.00;98078.13;5012312;28;20053;-76
2022/04/07 02:54:43;;;;;;;5.65;2.10;;;11.20;99.90;;;9.30;100.00;98071.88;5010924;28;20052;-76
2022/04/07 02:57:12;;;;;;;5.38;2.10;;;11.20;99.90;;;9.27;100.00;98066.09;5002527;28;20128;-76
2022/04/07 02:59:39;;;;;;;5.53;1.95;;;11.20;99.90;;;9.25;100.00;98060.91;5009547;28;20273;-76
2022/04/07 03:02:07;;;;;;;4.35;1.80;;;11.20;99.90;;;9.28;100.00;98041.44;4989885;28;20054;-76
2022/04/07 03:04:34;;;;;;;5.45;1.85;;;11.10;99.90;;;9.24;100.00;98039.47;4992702;28;20089;-76
2022/04/07 03:07:01;;;;;;;11.70;2.10;;;11.10;99.90;;;9.26;100.00;98031.91;4992266;28;20053;-78
2022/04/07 03:09:28;;;;;;;6.05;2.20;;;11.10;99.90;;;9.26;100.00;98030.00;4992880;28;20042;-76
2022/04/07 03:11:56;;;;;;;6.05;2.08;;;11.10;99.90;;;9.23;100.00;98013.38;5009009;28;20085;-76
2022/04/07 03:14:27;;;;;;;6.60;1.80;;;11.10;99.90;;;9.23;100.00;98016.91;5005402;28;20514;-76
2022/04/07 03:16:54;;;;;;;6.10;2.00;;;11.10;99.90;;;9.26;100.00;98026.47;5010715;28;20057;-76
2022/04/07 03:19:22;;;;;;;6.22;2.05;;;11.10;99.90;;;9.22;100.00;98011.72;5010342;28;20395;-76
2022/04/07 03:21:49;;;;;;;5.70;2.10;;;11.10;99.90;;;9.18;100.00;98003.25;4995171;28;20459;-76
2022/04/07 03:24:16;;;;;;;5.38;1.70;;;11.10;99.90;;;9.21;100.00;97997.31;5007274;28;20141;-76
2022/04/07 03:26:43;;;;;;;3.45;1.52;;;11.10;99.90;;;9.21;100.00;97994.59;5006402;28;20481;-76
2022/04/07 03:29:15;;;;;;;5.30;1.70;;;11.10;99.90;;;9.22;100.00;97998.97;4992218;28;20066;-76
2022/04/07 03:31:44;;;;;;;6.63;1.60;;;11.10;99.90;;;9.20;100.00;97988.34;4991182;28;20093;-76
2022/04/07 03:34:14;;;;;;;3.85;1.40;;;11.10;99.90;;;9.17;100.00;97980.69;4995533;28;20495;-76
2022/04/07 03:36:41;;;;;;;4.38;1.40;;;11.10;99.90;;;9.19;100.00;97977.72;5010741;28;20481;-76
2022/04/07 03:39:09;;;;;;;5.95;1.60;;;11.00;99.90;;;9.22;100.00;97982.69;5010202;28;20144;-76
2022/04/07 03:41:36;;;;;;;6.18;1.85;;;11.10;99.90;;;9.25;100.00;97971.34;5010609;28;20124;-76
2022/04/07 03:44:07;;;;;;;5.45;1.50;;;11.10;99.90;;;9.24;100.00;97969.72;5010492;28;20100;-76
2022/04/07 03:46:35;;;;;;;5.45;1.50;;;11.10;99.90;;;9.26;100.00;97975.72;4997548;28;20050;-76
2022/04/07 03:49:04;;;;;;;5.07;1.70;;;11.10;99.90;;;9.29;100.00;97967.13;4992053;28;20047;-76
2022/04/07 03:51:31;;;;;;;5.13;1.40;;;11.40;99.90;;;9.27;100.00;97963.81;5003771;28;20045;-76
2022/04/07 03:54:01;;;;;;;4.78;1.50;;;11.20;99.90;;;9.28;100.00;97965.44;5026096;28;20050;-76
2022/04/07 03:56:29;;;;;;;5.75;1.50;;;11.10;99.90;;;9.28;100.00;97965.44;5002774;28;20074;-76
2022/04/07 03:58:58;;;;;;;3.38;1.20;;;11.20;99.90;;;9.27;100.00;97966.53;5011257;28;20042;-76
2022/04/07 04:01:29;;;;;;;6.80;1.70;;;11.20;99.90;;;9.28;100.00;97956.50;5000809;28;20034;-76
2022/04/07 04:03:57;;;;;;;3.85;1.90;;;11.20;99.90;;;9.27;100.00;97947.53;5009682;28;20065;-76
2022/04/07 04:06:25;;;;;;;4.93;1.40;;;11.20;99.90;;;9.29;100.00;97945.41;4991141;28;20573;-76
2022/04/07 04:08:52;;;;;;;9.10;1.25;;;11.20;99.90;;;9.29;100.00;97933.69;4998601;28;20042;-76
2022/04/07 04:11:20;;;;;;;10.00;2.28;;;11.20;99.90;;;9.27;100.00;97928.53;5006023;28;20134;-76
2022/04/07 04:13:47;;;;;;;5.60;1.27;;;11.20;99.90;;;9.24;100.00;97915.44;5011012;28;20054;-76
2022/04/07 04:16:16;;;;;;;7.05;1.55;;;11.30;99.90;;;9.25;100.00;97908.94;5007843;28;20058;-76
2022/04/07 04:18:43;;;;;;;8.23;1.58;;;11.20;99.90;;;9.29;100.00;97910.13;5010869;28;20053;-76
2022/04/07 04:21:10;;;;;;;6.82;1.40;;;11.20;99.90;;;9.29;100.00;97901.97;5006388;28;20079;-75
2022/04/07 04:23:40;;;;;;;5.72;1.33;;;11.20;99.90;;;9.30;100.00;97898.19;5010790;28;20045;-76
2022/04/07 04:26:07;;;;;;;6.22;1.90;;;11.30;99.90;;;9.34;100.00;97888.50;5002777;28;20042;-76
2022/04/07 04:28:35;;;;;;;8.05;1.45;;;11.30;99.90;;;9.35;100.00;97900.19;4991219;28;20612;-76
2022/04/07 04:31:02;;;;;;;5.15;1.30;;;11.30;99.90;;;9.38;100.00;97889.66;4995174;28;20525;-76
2022/04/07 04:33:29;;;;;;;6.18;1.50;;;11.30;99.90;;;9.39;100.00;97888.59;4995263;28;20119;-76
2022/04/07 04:35:56;;;;;;;7.10;1.60;;;11.30;99.90;;;9.40;100.00;97873.13;4992003;28;20050;-76
2022/04/07 04:38:24;;;;;;;5.40;1.38;;;11.30;99.90;;;9.42;100.00;97859.31;5005833;28;20561;-76
2022/04/07 04:40:52;;;;;;;5.80;1.40;;;11.30;99.90;;;9.44;100.00;97854.47;4989768;28;20137;-76
2022/04/07 04:43:19;;;;;;;4.35;1.40;;;11.30;99.90;;;9.45;100.00;97870.53;4990829;28;20057;-76
2022/04/07 04:45:47;;;;;;;8.05;1.77;;;11.30;99.90;;;9.45;100.00;97861.56;4993636;28;20148;-76
2022/04/07 04:48:16;;;;;;;8.02;1.70;;;11.40;99.90;;;9.42;100.00;97856.59;5009076;28;20152;-76
2022/04/07 04:50:43;;;;;;;8.30;2.05;;;11.30;99.90;;;9.38;100.00;97845.41;5007289;28;20095;-76
2022/04/07 04:53:13;;;;;;;5.78;1.88;;;11.30;99.90;;;9.34;100.00;97839.63;4990644;28;20053;-76
2022/04/07 04:55:40;;;;;;;4.07;1.73;;;11.30;99.90;;;9.35;100.00;97822.28;5002663;28;20049;-76
2022/04/07 04:58:08;;;;;;;5.30;1.98;;;11.30;99.90;;;9.32;100.00;97827.38;4990765;28;20138;-76
2022/04/07 05:00:36;;;;;;;7.10;1.80;;;11.20;99.90;;;9.30;100.00;97821.38;4999415;28;20085;-77
2022/04/07 05:03:03;;;;;;;6.40;1.80;;;11.30;99.90;;;9.28;100.00;97820.81;4992738;28;20046;-78
2022/04/07 05:05:30;;;;;;;7.60;1.98;;;11.20;99.90;;;9.28;100.00;97821.63;4990235;28;20116;-78
2022/04/07 05:07:57;;;;;;;5.70;2.00;;;11.20;99.90;;;9.24;100.00;97804.19;4992782;28;20077;-78
2022/04/07 05:10:25;;;;;;;7.43;1.85;;;11.20;99.90;;;9.24;100.00;97795.22;5003754;28;20061;-79
2022/04/07 05:12:52;;;;;;;6.65;1.67;;;11.20;99.90;;;9.25;100.00;97781.38;4990493;28;20050;-79
2022/04/07 05:15:21;;;;;;;5.55;2.13;;;11.20;99.90;;;9.20;100.00;97778.59;4990378;28;20129;-80
2022/04/07 05:17:50;;;;;;;8.57;1.75;;;11.20;99.90;;;9.17;100.00;97774.47;5000109;28;20038;-80
2022/04/07 05:20:17;;;;;;;6.07;2.22;;;11.20;99.90;;;9.16;100.00;97777.44;5008485;28;20053;-79
2022/04/07 05:22:45;;;;;;;7.85;2.38;;;11.30;99.90;;;9.10;100.00;97767.53;4990021;28;20121;-79
2022/04/07 05:25:15;;;;;;;4.97;1.77;;;11.20;99.90;;;9.10;100.00;97767.53;4990094;28;20105;-79
2022/04/07 05:27:45;;;;;;;7.22;1.73;;;11.20;99.90;;;9.10;100.00;97754.81;5005898;28;20045;-79
2022/04/07 05:30:15;;;;;;;5.32;2.00;;;11.20;99.90;;;9.15;100.00;97754.06;5009046;28;20136;-79
2022/04/07 05:32:44;;;;;;;4.33;1.83;;;11.20;99.90;;;9.22;100.00;97737.66;5003882;28;20074;-79
2022/04/07 05:35:13;;;;;;;5.22;2.35;;;11.20;99.90;;;9.23;100.00;97729.25;4995624;28;20049;-79
2022/04/07 05:37:41;;;;;;;6.22;2.05;;;11.20;99.90;;;9.22;100.00;97729.50;5009702;28;20056;-79
2022/04/07 05:40:12;;;;;;;6.40;1.90;;;11.20;99.90;;;9.24;100.00;97730.09;4992648;28;20402;-79
2022/04/07 05:42:39;;;;;;;4.15;2.00;;;11.20;99.90;;;9.26;100.00;97715.19;4998232;28;20125;-78
2022/04/07 05:45:07;;;;;;;3.97;1.88;;;11.20;99.90;;;9.28;100.00;97713.06;4990586;28;20053;-79
2022/04/07 05:47:40;;;;;;;5.22;1.95;;;11.20;99.90;;;9.28;100.00;97683.22;4990038;28;20121;-79
2022/04/07 05:50:12;;;;;;;5.47;1.80;;;11.10;99.90;;;9.31;100.00;97688.16;4989058;28;20054;-79
2022/04/07 05:52:39;;;;;;;4.25;1.83;;;11.10;99.90;;;9.33;100.00;97680.59;4989261;28;20137;-78
2022/04/07 05:55:08;;;;;;;5.70;1.98;;;11.10;99.90;;;9.31;100.00;97685.44;4989795;28;20541;-81
2022/04/07 05:57:35;;;;;;;4.40;1.67;;;11.20;99.90;;;9.34;100.00;97673.25;4999826;28;20045;-81
2022/04/07 06:00:07;;;;;;;4.95;1.67;;;11.30;99.90;;;9.32;100.00;97664.53;4998334;28;20130;-81
2022/04/07 06:02:34;;;;;;;5.68;2.30;;;11.20;99.90;;;9.32;100.00;97662.66;5001994;28;20518;-76
2022/04/07 06:05:02;;;;;;;4.80;1.70;;;11.30;99.90;;;9.36;100.00;97665.69;5000951;28;20065;-78
2022/04/07 06:07:30;;;;;;;2.70;1.10;;;11.20;99.90;;;9.36;100.00;97652.94;4999651;28;20544;-77
2022/04/07 06:09:57;;;;;;;2.95;1.30;;;11.20;99.90;;;9.45;100.00;97653.34;5007752;28;20042;-77
2022/04/07 06:12:25;;;;;;;3.95;1.35;;;11.20;99.90;;;9.44;100.00;97631.88;5008157;28;20064;-78
2022/04/07 06:14:52;;;;;;;3.40;1.38;;;11.20;99.90;;;9.43;100.00;97646.53;5002420;28;20511;-78
2022/04/07 06:17:19;;;;;;;4.70;1.38;;;11.20;99.90;;;9.42;100.00;97642.16;5000329;28;20050;-78
2022/04/07 06:19:46;;;;;;;5.50;1.20;;;11.20;99.90;;;9.42;100.00;97628.59;5007378;28;20077;-78
2022/04/07 06:22:14;;;;;;;4.35;1.27;;;11.20;99.90;;;9.42;100.00;97634.84;4989277;28;20541;-78
2022/04/07 06:24:42;;;;;;;2.92;1.20;;;11.20;99.90;;;9.43;100.00;97627.53;5000162;28;20041;-78
2022/04/07 06:27:10;;;;;;;3.13;1.15;;;11.20;99.90;;;9.39;100.00;97630.75;5005149;28;20046;-78
2022/04/07 06:29:37;;;;;;;4.95;1.45;;;11.20;99.90;;;9.38;100.00;97618.22;4991809;28;20350;-76
2022/04/07 06:32:05;;;;;;;3.67;1.27;;;11.20;99.90;;;9.42;100.00;97613.13;4989720;28;20038;-76
2022/04/07 06:34:32;;;;;;;5.35;1.23;;;11.20;99.90;;;9.39;100.00;97590.03;5004700;28;20042;-76
2022/04/07 06:37:00;;;;;;;2.58;1.02;;;11.20;99.90;;;9.41;100.00;97605.25;5012328;28;20049;-76
2022/04/07 06:39:27;;;;;;;4.05;1.25;;;11.30;99.90;;;9.39;100.00;97598.16;5005898;28;20784;-76
2022/04/07 06:41:56;;;;;;;4.30;1.17;;;11.20;99.90;;;9.38;100.00;97599.22;5011004;28;20050;-76
2022/04/07 06:44:23;;;;;;;4.55;1.40;;;11.20;99.90;;;9.34;100.00;97589.94;5012023;28;20116;-76
2022/04/07 06:46:51;;;;;;;2.75;1.02;;;11.30;99.90;;;9.32;100.00;97570.38;5000387;28;20454;-77
2022/04/07 06:49:18;;;;;;;3.53;1.15;;;11.20;99.90;;;9.41;100.00;97561.81;5020355;28;20581;-76
2022/04/07 06:51:45;;;;;;;4.93;1.05;;;11.20;99.90;;;9.49;100.00;97547.81;5010029;28;20042;-76
2022/04/07 06:54:13;;;;;;;2.92;1.10;;;11.30;99.90;;;9.53;100.00;97543.53;5010627;28;20053;-77
2022/04/07 06:56:40;;;;;;;2.10;0.90;;;11.20;99.90;;;9.53;100.00;97543.53;5018473;28;20052;-77
2022/04/07 06:59:08;;;;;;;3.58;1.08;;;11.20;99.90;;;9.54;100.00;97534.31;5024059;28;20053;-77
2022/04/07 07:01:36;;;;;;;5.50;1.20;;;11.30;99.90;;;9.51;100.00;97524.75;5014558;28;20049;-77
2022/04/07 07:04:03;;;;;;;3.63;1.10;;;11.30;99.90;;;9.55;100.00;97519.66;5000389;28;20133;-76
2022/04/07 07:06:30;;;;;;;3.42;1.10;;;11.20;99.90;;;9.53;100.00;97494.66;4994793;28;20046;-76
2022/04/07 07:08:58;;;;;;;2.47;1.00;;;11.20;99.90;;;9.54;100.00;97497.13;5007437;28;20133;-76
2022/04/07 07:11:25;;;;;;;5.47;1.10;;;11.20;99.90;;;9.50;100.00;97484.28;5010319;28;20487;-76
2022/04/07 07:13:52;;;;;;;3.45;1.23;;;11.30;99.90;;;9.48;100.00;97473.72;5007644;28;20065;-76
2022/04/07 07:16:21;;;;;;;4.00;1.30;;;11.30;99.90;;;9.47;100.00;97474.75;4999847;28;20494;-77
2022/04/07 07:18:49;;;;;;;3.55;1.35;;;11.30;99.90;;;9.46;100.00;97461.44;5008180;28;20495;-77
2022/04/07 07:21:16;;;;;;;3.40;1.30;;;11.30;99.90;;;9.47;100.00;97446.81;5001167;28;20034;-78
2022/04/07 07:23:45;;;;;;;3.10;1.30;;;11.30;99.90;;;9.44;100.00;97441.88;5000695;28;20049;-77
2022/04/07 07:26:13;;;;;;;3.60;1.15;;;11.30;99.90;;;9.45;100.00;97428.06;5011702;28;20092;-77
2022/04/07 07:28:40;;;;;;;4.95;1.38;;;11.30;99.90;;;9.45;100.00;97419.09;5011200;28;20052;-77
2022/04/07 07:31:07;;;;;;;4.93;1.35;;;11.40;99.90;;;9.47;100.00;97411.53;5010575;28;20041;-77
2022/04/07 07:33:36;;;;;;;4.68;1.20;;;11.30;99.90;;;9.48;100.00;97424.00;5006400;23;20046;-84
2022/04/07 07:36:05;;;;;;;2.53;1.00;;;11.30;99.90;;;9.46;100.00;97399.84;4977933;28;20074;-85
2022/04/07 07:38:33;;;;;;;3.25;1.10;;;11.30;99.90;;;9.48;100.00;97399.56;4994349;28;20166;-85
2022/04/07 07:41:01;;;;;;;2.45;1.17;;;11.30;99.90;;;9.47;100.00;97397.94;4988251;28;20070;-85
2022/04/07 07:43:30;;;;;;;4.18;1.23;;;11.30;99.90;;;9.45;100.00;97394.66;4988266;28;20042;-85
2022/04/07 07:45:57;;;;;;;2.80;0.93;;;11.30;99.90;;;9.43;100.00;97375.09;4990139;28;20407;-85
2022/04/07 07:48:26;;;;;;;4.32;1.10;;;11.40;99.90;;;9.46;100.00;97374.59;4992097;28;20064;-85
2022/04/07 07:50:55;;;;;;;4.35;1.20;;;11.30;99.90;;;9.46;100.00;97363.72;4991251;28;20092;-84
2022/04/07 07:53:22;;;;;;;2.75;0.90;;;11.30;99.90;;;9.46;100.00;97359.13;4987173;28;20474;-85
2022/04/07 07:55:50;;;;;;;4.85;0.88;;;11.30;99.90;;;9.49;100.00;97344.22;4986670;28;20097;-85
2022/04/07 07:58:17;;;;;;;1.88;0.75;;;11.30;99.90;;;9.49;100.00;97346.94;4988789;28;20112;-85
2022/04/07 08:00:44;;;;;;;2.42;0.70;;;11.30;99.90;;;9.50;100.00;97315.97;4990349;28;20109;-85
2022/04/07 08:03:12;;;;;;;2.92;1.00;;;11.30;99.90;;;9.48;100.00;97318.13;4991044;28;20038;-85
2022/04/07 08:05:40;;;;;;;2.90;1.00;;;11.30;99.90;;;9.53;100.00;97304.63;4991831;28;20104;-85
2022/04/07 08:08:11;;;;;;;2.65;0.98;;;11.30;99.90;;;9.51;100.00;97307.59;4986162;28;20042;-83
2022/04/07 08:10:38;;;;;;;2.13;0.80;;;11.30;99.90;;;9.49;100.00;97304.31;4991259;28;20060;-84
2022/04/07 08:13:05;;;;;;;3.42;1.30;;;11.30;99.90;;;9.45;100.00;97292.34;4981816;28;20050;-84
2022/04/07 08:15:34;;;;;;;5.25;1.05;;;11.30;99.90;;;9.45;100.00;97286.09;4972562;28;20101;-84
2022/04/07 08:18:03;;;;;;;3.03;0.90;;;11.40;99.90;;;9.53;100.00;97277.47;4992202;28;20052;-84
2022/04/07 08:20:30;;;;;;;3.67;0.80;;;11.30;99.90;;;9.56;100.00;97277.78;5010507;28;20108;-85
2022/04/07 08:22:58;;;;;;;4.47;1.45;;;11.40;99.90;;;9.62;100.00;97267.78;4990032;28;20046;-90
2022/04/07 08:25:26;;;;;;;4.18;1.02;;;11.40;99.90;;;9.69;100.00;97260.25;4989037;28;20050;-87
2022/04/07 08:27:53;;;;;;;4.30;0.70;;;11.40;99.90;;;9.78;100.00;97244.28;4992381;28;20052;-86
2022/04/07 08:30:23;;;;;;;2.35;0.75;;;11.50;99.90;;;9.80;100.00;97244.84;4991768;28;20063;-86
2022/04/07 08:32:51;;;;;;;1.90;0.70;;;11.50;99.90;;;9.87;100.00;97250.06;4980429;28;20050;-88
2022/04/07 08:35:18;;;;;;;2.50;0.68;;;11.50;99.90;;;9.92;100.00;97241.97;4990009;28;20398;-87
2022/04/07 08:37:45;;;;;;;1.80;0.70;;;11.50;99.90;;;9.94;100.00;97229.75;4979120;28;20392;-87
2022/04/07 08:40:19;;;;;;;1.50;0.70;;;11.60;99.90;;;9.91;100.00;97221.28;5000715;28;20077;-87
2022/04/07 08:42:47;;;;;;;2.63;0.60;;;11.60;99.90;;;9.88;100.00;97211.78;4987005;28;20042;-86
2022/04/07 08:45:18;;;;;;;3.33;0.80;;;11.60;99.90;;;9.89;100.00;97218.84;4973057;28;20050;-87
2022/04/07 08:47:51;;;;;;;1.30;0.60;;;11.60;99.90;;;9.90;100.00;97193.31;4984460;28;20168;-87
2022/04/07 08:50:23;;;;;;;1.95;0.57;;;11.70;99.90;;;9.93;100.00;97189.25;4982402;28;20051;-87
2022/04/07 08:52:51;;;;;;;2.08;0.77;;;11.70;99.90;;;9.95;100.00;97192.53;4972306;28;20557;-87
2022/04/07 08:55:20;;;;;;;2.58;0.93;;;11.60;99.90;;;9.97;100.00;97179.50;4972476;28;20105;-87
2022/04/07 08:57:49;;;;;;;3.10;0.80;;;11.70;99.90;;;10.04;100.00;97152.09;4975995;28;20056;-87
2022/04/07 09:00:17;;;;;;;2.35;0.90;;;11.70;99.90;;;10.04;100.00;97147.47;4983801;28;20057;-85
2022/04/07 09:02:46;;;;;;;1.67;0.65;;;11.70;99.90;;;10.04;100.00;97185.53;4976072;28;20141;-85
2022/04/07 09:05:17;;;;;;;3.05;0.60;;;11.70;99.90;;;10.03;100.00;97189.31;4984723;28;20065;-85
2022/04/07 09:07:47;;;;;;;1.60;0.52;;;11.80;99.90;;;10.04;100.00;97184.72;4988422;28;20096;-85
2022/04/07 09:10:18;;;;;;;4.45;0.73;;;11.80;99.90;;;10.13;100.00;97162.22;5005738;28;20057;-85
2022/04/07 09:12:45;;;;;;;2.88;0.65;;;11.80;99.90;;;10.28;100.00;97156.03;4980151;28;20086;-85
2022/04/07 09:15:15;;;;;;;2.00;0.70;;;11.90;99.90;;;10.35;100.00;97147.63;4974095;28;20507;-84
2022/04/07 09:17:54;;;;;;;1.25;0.52;;;11.90;99.90;;;10.33;100.00;97155.25;4975158;28;20113;-85
2022/04/07 09:20:22;;;;;;;1.20;0.52;;;11.90;99.90;;;10.37;100.00;97138.13;4987080;28;20841;-85
2022/04/07 09:22:57;;;;;;;2.55;0.60;;;12.00;99.90;;;10.44;100.00;97194.16;4970989;28;20589;-85
2022/04/07 09:25:24;;;;;;;5.60;0.90;;;12.00;99.90;;;10.32;100.00;97309.38;5001647;28;20033;-84
2022/04/07 09:27:53;;;;;;;5.93;0.73;;;11.90;99.90;;;9.96;100.00;97290.06;4980098;28;20058;-85
2022/04/07 09:30:22;;;;;;;3.28;0.68;;;11.70;99.90;;;9.68;100.00;97264.03;5009312;28;20042;-85
2022/04/07 09:32:49;;;;;;;4.45;0.63;;;11.60;99.90;;;9.64;100.00;97284.63;5009489;28;20133;-85
2022/04/07 09:35:19;;;;;;;5.60;0.55;;;11.50;99.90;;;9.63;100.00;97303.91;5009785;28;20049;-85
2022/04/07 09:37:46;;;;;;;3.85;0.63;;;11.40;99.90;;;9.32;100.00;97293.56;5004936;28;20439;-85
2022/04/07 09:40:18;;;;;;;3.15;0.55;;;11.30;99.90;;;9.20;100.00;97282.06;4975442;28;20054;-85
2022/04/07 09:42:51;;;;;;;;;;;11.30;99.90;;;9.17;100.00;97296.94;4970962;28;20050;-85
2022/04/07 09:45:23;;;;;;;3.42;0.60;;;11.10;99.90;;;9.06;100.00;97303.31;4980206;28;19998;-87
2022/04/07 09:47:52;;;;;;;2.70;0.73;;;11.00;99.90;;;8.91;100.00;97312.13;4977876;28;20054;-84
2022/04/07 09:50:24;;;;;;;3.28;0.60;;;11.00;99.90;;;8.82;100.00;97288.41;4994265;28;20121;-85
2022/04/07 09:52:58;;;;;;;3.92;0.95;;;10.90;99.90;;;8.76;100.00;97292.97;4971280;28;20039;-82
2022/04/07 09:55:30;;;;;;;3.20;1.10;;;10.90;99.90;;;8.79;100.00;97295.16;4970970;28;20081;-82
2022/04/07 09:58:03;;;;;;;3.58;1.20;;;10.80;99.90;;;8.84;100.00;97297.94;4974890;28;20050;-84
2022/04/07 10:00:30;;;;;;;3.70;1.35;;;10.80;99.90;;;8.82;100.00;97312.81;4978446;28;20057;-81
2022/04/07 10:02:59;;;;;;;4.68;1.40;;;10.80;99.90;;;8.73;100.00;97296.97;4988688;28;20050;-83
2022/04/07 10:05:29;;;;;;;3.00;1.00;;;10.80;99.90;;;8.79;100.00;97289.72;4972002;28;20042;-81
2022/04/07 10:07:59;;;;;;;4.00;1.25;;;10.80;99.90;;;8.80;100.00;97288.66;4977210;28;20121;-80
2022/04/07 10:10:27;;;;;;;3.40;0.90;;;10.80;99.90;;;8.86;100.00;97289.53;4991836;28;20042;-80
2022/04/07 10:12:59;;;;;;;4.03;1.10;;;10.80;99.90;;;8.87;100.00;97292.00;4983249;28;20561;-80
2022/04/07 10:15:27;;;;;;;4.00;1.20;;;10.80;99.90;;;9.06;100.00;97288.94;4986125;28;20050;-80
2022/04/07 10:17:56;;;;;;;3.40;1.00;;;10.90;99.90;;;9.23;100.00;97295.09;4972906;28;20061;-80
2022/04/07 10:20:33;;;;;;;3.33;0.98;;;11.00;99.90;;;9.28;100.00;97287.00;4974249;28;20109;-80
2022/04/07 10:23:23;;;;;;;2.95;1.10;;;11.00;99.90;;;9.27;100.00;97290.81;4993477;28;20070;-80
2022/04/07 10:25:52;;;;;;;3.08;1.02;;;11.00;99.90;;;9.26;100.00;97281.03;4997676;28;20042;-80
2022/04/07 10:28:20;;;;;;;4.03;1.48;;;11.00;99.90;;;9.35;100.00;97287.63;4993644;28;20124;-80
2022/04/07 10:30:49;;;;;;;4.18;1.10;;;11.00;99.90;;;9.44;100.00;97263.53;4989525;28;20067;-80
2022/04/07 10:33:41;;;;;;;3.58;1.20;;;11.10;99.90;;;9.66;100.00;97274.34;4973690;28;20053;-80
2022/04/07 10:36:13;;;;;;;4.72;1.95;;;11.30;99.90;;;9.83;100.00;97267.97;4990869;28;20058;-80
2022/04/07 10:38:43;;;;;;;4.30;1.80;;;11.40;99.90;;;10.07;100.00;97274.66;4973747;28;20139;-80
2022/04/07 10:41:11;;;;;;;6.88;2.35;;;11.40;99.90;;;10.32;100.00;97267.78;4974016;28;20047;-80
2022/04/07 10:43:42;;;;;;;7.03;2.30;;;11.60;99.90;;;10.43;100.00;97269.44;4973491;28;20039;-80
2022/04/07 10:46:19;;;;;;;6.15;2.35;;;11.70;99.90;;;10.59;100.00;97261.41;4996552;28;20049;-79
2022/04/07 10:48:51;;;;;;;5.25;2.10;;;11.80;99.90;;;10.69;100.00;97266.88;4993233;28;20133;-79
2022/04/07 10:51:42;;;;;;;4.30;1.90;;;11.90;99.90;;;10.73;100.00;97260.63;4986889;28;20070;-79
2022/04/07 10:54:09;;;;;;;5.60;1.55;;;12.00;99.90;;;10.75;100.00;97265.81;4974252;28;20039;-79
2022/04/07 10:56:39;;;;;;;3.45;1.70;;;12.10;99.90;;;10.79;100.00;97255.22;5000950;28;20129;-79
2022/04/07 10:59:20;;;;;;;5.75;1.70;;;12.20;99.90;;;10.93;100.00;97262.59;4992964;28;20042;-79
2022/04/07 11:01:52;;;;;;;;;;;12.20;99.90;;;11.00;100.00;97272.41;4984534;28;20085;-80
2022/04/07 11:04:54;;;;;;;6.57;1.55;;;12.30;99.90;;;10.99;100.00;97278.97;4985196;28;20024;-79
2022/04/07 11:07:23;;;;;;;;;;;12.30;99.90;;;10.96;100.00;97267.50;4985047;28;20129;-79
2022/04/07 11:10:14;;;;;;;4.80;1.40;;;12.40;99.90;;;11.04;100.00;97273.50;5011464;28;19976;-79
2022/04/07 11:12:44;;;;;;;;;;;12.40;99.90;;;11.03;100.00;97283.59;4982331;28;20125;-79
2022/04/07 11:15:34;;;;;;;3.90;1.27;;;12.50;99.90;;;11.09;100.00;97287.97;4995245;28;19932;-79
2022/04/07 11:18:23;;;;;;;2.65;1.23;;;12.50;99.90;;;11.17;100.00;97286.63;4993700;28;20169;-80
2022/04/07 11:21:09;;;;;;;3.60;1.27;;;12.50;99.90;;;11.10;100.00;97295.03;4989852;28;20042;-79
2022/04/07 11:23:44;;;;;;;7.45;1.30;;;12.50;99.90;;;11.07;100.00;97305.66;4992441;28;20125;-79
2022/04/07 11:26:13;;;;;;;3.05;1.48;;;12.60;99.90;;;11.04;100.00;97290.69;4989478;28;20070;-79
2022/04/07 11:28:56;;;;;;;2.88;1.20;;;12.50;99.90;;;10.89;100.00;97299.59;4972847;28;20126;-79
2022/04/07 11:31:44;;;;;;;4.45;1.33;;;12.50;99.90;;;10.82;100.00;97307.19;4983339;28;20054;-79
2022/04/07 11:34:52;;;;;;;3.20;1.50;;;12.40;99.90;;;10.77;100.00;97309.88;4992037;28;20046;-79
2022/04/07 11:37:20;;;;;;;2.97;1.20;;;12.40;99.90;;;10.85;100.00;97305.81;4972353;28;20480;-79
2022/04/07 11:39:51;;;;;;;2.63;1.30;;;12.40;99.90;;;10.86;100.00;97316.44;4971507;28;20055;-79
2022/04/07 11:42:20;;;;;;;3.53;1.30;;;12.40;99.90;;;10.91;100.00;97319.19;4972604;28;20199;-79
2022/04/07 11:44:48;;;;;;;4.85;1.30;;;12.40;99.90;;;10.78;97.80;97330.56;4978320;28;20133;-80
2022/04/07 11:47:28;;;;;;;4.07;1.30;;;12.30;99.90;;;10.80;98.60;97325.66;5011694;28;20046;-80
2022/04/07 11:49:55;;;;;;;4.65;1.38;;;12.30;99.90;;;10.86;99.09;97324.59;4977357;28;20058;-79
2022/04/07 11:52:31;;;;;;;4.35;1.40;;;12.30;99.90;;;10.86;96.52;97321.88;4973472;28;20055;-80